Fosterville, New York
Current Conditions -  °F | °C
As of 4:54 AM on Tuesday 21 Oct 2014 (Local Time) from KSYR Reporting Station
Drizzle Drizzle  
Wind Chill: 46°   Ceiling: 4500
Heat Index: 49°   Visibility: 10mi
Dew Point: 46°   Wind: 7mph
Humidity: 90%   Direction: 110°ESE
Pressure: 29.83"   Gusts: NA
Location:  42.9235°N, 76.5525°W
Report Text: KSYR 210854Z 11006KT 10SM -DZ SCT030 BKN045 OVC055 10/08 A2983 RMK SLP099 T00950080 58010
Loading
Personal Weather Stations






























Interactive Weather Map
Tropical Storm Tracking
New forecast layout! Learn more

10-Day Weather Forecast

Advertisements
Track Severe Weather on mobile